Time;durP1;ratioP1;P1;durP2;ratioP2;P2;SDS_P1;SDS_P2;PMS_P1;PMS_P2;Temp;Humidity;BMP_temperature;BMP_pressure;BME280_temperature;BME280_humidity;BME280_pressure;Samples;Min_cycle;Max_cycle;Signal;HPM_P1;HPM_P2
2023/12/10 05:04:56;;;;;;;0.30;0.30;;;8.90;99.90;;;;;;6120942;23;20238;-88
2023/12/10 05:07:21;;;;;;;0.30;0.30;;;8.90;99.90;;;;;;4915691;29;20244;-64
2023/12/10 05:09:47;;;;;;;0.40;0.40;;;8.90;99.90;;;;;;4936210;29;20197;-64
2023/12/10 05:12:13;;;;;;;0.30;0.30;;;8.90;99.90;;;;;;4936098;29;20177;-65
2023/12/10 05:14:38;;;;;;;0.30;0.30;;;8.90;99.90;;;;;;4949134;29;20634;-65
2023/12/10 05:17:04;;;;;;;0.30;0.30;;;8.90;99.90;;;;;;4937968;29;20201;-64
2023/12/10 05:19:30;;;;;;;0.30;0.30;;;8.90;99.90;;;;;;4936186;29;20183;-63
2023/12/10 05:21:55;;;;;;;0.30;0.30;;;9.00;99.90;;;;;;4937300;29;20178;-63
2023/12/10 05:24:21;;;;;;;0.30;0.30;;;8.90;99.90;;;;;;4935536;29;20180;-65
2023/12/10 05:26:46;;;;;;;0.30;0.30;;;9.00;99.90;;;;;;4936542;29;20209;-64
2023/12/10 05:29:12;;;;;;;0.30;0.30;;;9.00;99.90;;;;;;4936331;29;20629;-65
2023/12/10 05:31:37;;;;;;;0.40;0.40;;;9.00;99.90;;;;;;4948409;29;20188;-64
2023/12/10 05:34:03;;;;;;;0.30;0.30;;;9.00;99.90;;;;;;4955048;29;20255;-64
2023/12/10 05:36:29;;;;;;;0.30;0.30;;;9.00;99.90;;;;;;4953554;29;20197;-65
2023/12/10 05:38:54;;;;;;;0.30;0.30;;;9.00;99.90;;;;;;4955206;29;20647;-65
2023/12/10 05:41:20;;;;;;;0.30;0.30;;;9.00;99.90;;;;;;4955067;29;20550;-66
2023/12/10 05:43:45;;;;;;;0.30;0.30;;;9.00;99.90;;;;;;4954956;29;20177;-65
2023/12/10 05:46:11;;;;;;;0.30;0.30;;;9.00;99.90;;;;;;4953682;29;20200;-65
2023/12/10 05:48:37;;;;;;;0.30;0.30;;;9.00;99.90;;;;;;4955059;29;20208;-66
2023/12/10 05:51:03;;;;;;;0.30;0.30;;;9.00;99.90;;;;;;4954569;28;20181;-64
2023/12/10 05:53:29;;;;;;;0.35;0.35;;;9.00;99.90;;;;;;4957966;29;20180;-65
2023/12/10 05:55:54;;;;;;;0.30;0.30;;;9.00;99.90;;;;;;4957950;29;20284;-65
2023/12/10 05:58:20;;;;;;;0.30;0.30;;;9.00;99.90;;;;;;4958711;29;20546;-64
2023/12/10 06:00:46;;;;;;;0.30;0.30;;;9.00;99.90;;;;;;4950769;29;20240;-64
2023/12/10 06:03:11;;;;;;;0.30;0.30;;;9.00;99.90;;;;;;4939299;29;20228;-65
2023/12/10 06:05:37;;;;;;;0.30;0.30;;;9.00;99.90;;;;;;4941752;29;20237;-66
2023/12/10 06:08:03;;;;;;;0.30;0.27;;;9.00;99.90;;;;;;4958066;29;20347;-65
2023/12/10 06:10:28;;;;;;;0.30;0.30;;;8.90;99.90;;;;;;4957982;29;20815;-64
2023/12/10 06:12:55;;;;;;;0.30;0.30;;;8.90;99.90;;;;;;4958291;29;20255;-66
2023/12/10 06:15:20;;;;;;;0.30;0.30;;;8.90;99.90;;;;;;4957300;29;20283;-63
2023/12/10 06:17:46;;;;;;;0.30;0.30;;;8.90;99.90;;;;;;4958337;29;20220;-64
2023/12/10 06:20:11;;;;;;;0.30;0.30;;;8.90;99.90;;;;;;4958078;29;20181;-67
2023/12/10 06:22:37;;;;;;;0.30;0.30;;;8.90;99.90;;;;;;4954608;29;20182;-64
2023/12/10 06:25:03;;;;;;;0.30;0.30;;;8.90;99.90;;;;;;4938558;29;20714;-65
2023/12/10 06:27:29;;;;;;;0.30;0.30;;;8.90;99.90;;;;;;4938838;29;20248;-65
2023/12/10 06:29:54;;;;;;;0.30;0.30;;;8.90;99.90;;;;;;4938970;29;20500;-65
2023/12/10 06:32:20;;;;;;;0.27;0.27;;;8.90;99.90;;;;;;4938664;29;20421;-64
2023/12/10 06:34:46;;;;;;;0.30;0.30;;;8.90;99.90;;;;;;4938426;29;20185;-65
2023/12/10 06:37:11;;;;;;;0.30;0.30;;;8.90;99.90;;;;;;4922560;29;20189;-64
2023/12/10 06:39:37;;;;;;;0.33;0.33;;;8.90;99.90;;;;;;4938783;29;20181;-65
2023/12/10 06:42:03;;;;;;;0.33;0.33;;;8.90;99.90;;;;;;4938424;29;20177;-64
2023/12/10 06:44:28;;;;;;;0.30;0.30;;;8.90;99.90;;;;;;4938135;29;20197;-66
2023/12/10 06:46:54;;;;;;;0.20;0.20;;;8.90;99.90;;;;;;4951594;29;20292;-66
2023/12/10 06:49:19;;;;;;;0.30;0.30;;;8.90;99.90;;;;;;4940090;29;20264;-64
2023/12/10 06:51:45;;;;;;;0.30;0.30;;;9.00;99.90;;;;;;4956964;29;20213;-65
2023/12/10 06:54:11;;;;;;;0.30;0.30;;;8.90;99.90;;;;;;4957231;29;20177;-65
2023/12/10 06:56:39;;;;;;;0.40;0.40;;;8.90;99.90;;;;;;4957577;29;20223;-65
2023/12/10 06:59:06;;;;;;;0.30;0.30;;;8.80;99.90;;;;;;4957297;29;20204;-66
2023/12/10 07:01:34;;;;;;;0.35;0.35;;;8.80;99.90;;;;;;4955615;29;20181;-66
2023/12/10 07:04:00;;;;;;;0.30;0.30;;;8.80;99.90;;;;;;4956433;28;20313;-66
2023/12/10 07:06:25;;;;;;;0.30;0.30;;;8.90;99.90;;;;;;4956567;29;20240;-65
2023/12/10 07:08:51;;;;;;;0.30;0.30;;;8.90;99.90;;;;;;4957109;29;20209;-64
2023/12/10 07:11:17;;;;;;;0.30;0.30;;;8.90;99.90;;;;;;4956600;29;20173;-66
2023/12/10 07:13:43;;;;;;;0.37;0.37;;;8.90;99.90;;;;;;4957058;29;20412;-66
2023/12/10 07:16:08;;;;;;;0.30;0.30;;;8.90;99.90;;;;;;4955731;29;20201;-66
2023/12/10 07:18:34;;;;;;;0.30;0.30;;;8.90;99.90;;;;;;4956977;29;20183;-65
2023/12/10 07:20:59;;;;;;;0.30;0.30;;;9.00;99.90;;;;;;4951467;29;20216;-66
2023/12/10 07:23:25;;;;;;;0.30;0.30;;;9.00;99.90;;;;;;4937844;29;20181;-64
2023/12/10 07:25:51;;;;;;;0.30;0.30;;;9.00;99.90;;;;;;4937324;29;20190;-63
2023/12/10 07:28:16;;;;;;;0.30;0.30;;;9.10;99.90;;;;;;4923700;29;20292;-66
2023/12/10 07:30:42;;;;;;;0.40;0.40;;;9.00;99.90;;;;;;4937454;29;20281;-65
2023/12/10 07:33:08;;;;;;;0.30;0.30;;;9.00;99.90;;;;;;4937410;29;20174;-65
2023/12/10 07:35:33;;;;;;;0.40;0.40;;;9.10;99.90;;;;;;4942902;29;20195;-67
2023/12/10 07:37:59;;;;;;;0.30;0.30;;;9.10;99.90;;;;;;4947769;29;20181;-65
2023/12/10 07:40:24;;;;;;;0.30;0.30;;;9.10;99.90;;;;;;4944474;29;20173;-70
2023/12/10 07:42:51;;;;;;;0.30;0.20;;;9.20;99.90;;;;;;4946963;29;20264;-66
2023/12/10 07:45:16;;;;;;;0.30;0.30;;;9.10;99.90;;;;;;4947128;29;20200;-66
2023/12/10 07:47:42;;;;;;;0.30;0.30;;;9.20;99.90;;;;;;4956439;29;20674;-68
2023/12/10 07:50:08;;;;;;;0.33;0.33;;;9.20;99.90;;;;;;4939393;29;20169;-66
2023/12/10 07:52:34;;;;;;;0.40;0.40;;;9.10;99.90;;;;;;4937634;29;20185;-64
2023/12/10 07:54:59;;;;;;;0.30;0.30;;;9.20;99.90;;;;;;4937206;29;20579;-64
2023/12/10 07:57:25;;;;;;;0.30;0.30;;;9.20;99.90;;;;;;4935299;29;20201;-65
2023/12/10 07:59:51;;;;;;;0.30;0.30;;;9.20;99.90;;;;;;4937113;29;20272;-67
2023/12/10 08:02:16;;;;;;;0.40;0.40;;;9.20;99.90;;;;;;4936915;29;20985;-65
2023/12/10 08:04:42;;;;;;;0.30;0.30;;;9.20;99.90;;;;;;4936656;29;20220;-65
2023/12/10 08:07:08;;;;;;;0.33;0.33;;;9.20;99.90;;;;;;4936686;29;20210;-65
2023/12/10 08:09:34;;;;;;;0.30;0.30;;;9.20;99.90;;;;;;4937697;29;20718;-66
2023/12/10 08:12:01;;;;;;;0.30;0.30;;;9.30;99.90;;;;;;4937737;29;20202;-68
2023/12/10 08:14:28;;;;;;;0.30;0.30;;;9.30;99.90;;;;;;4935835;29;20248;-66
2023/12/10 08:16:54;;;;;;;0.30;0.30;;;9.30;99.90;;;;;;4936637;29;20229;-67
2023/12/10 08:19:20;;;;;;;0.30;0.27;;;9.40;99.90;;;;;;4937778;29;20174;-67
2023/12/10 08:21:45;;;;;;;0.30;0.30;;;9.40;99.90;;;;;;4926179;29;20216;-68
2023/12/10 08:24:11;;;;;;;0.30;0.30;;;9.40;99.90;;;;;;4941983;29;20416;-67
2023/12/10 08:26:36;;;;;;;0.30;0.30;;;9.30;99.90;;;;;;4950628;29;20301;-67
2023/12/10 08:29:02;;;;;;;0.30;0.30;;;9.30;99.90;;;;;;4940962;29;20572;-67
2023/12/10 08:31:28;;;;;;;0.30;0.20;;;9.40;99.90;;;;;;4943069;29;20651;-67
2023/12/10 08:33:54;;;;;;;0.30;0.30;;;9.40;99.90;;;;;;4934965;29;20419;-64
2023/12/10 08:36:19;;;;;;;0.30;0.30;;;9.40;99.90;;;;;;4921835;29;20714;-65
2023/12/10 08:38:45;;;;;;;0.40;0.40;;;9.50;99.90;;;;;;4941848;29;20178;-64
2023/12/10 08:41:10;;;;;;;0.30;0.30;;;9.60;99.90;;;;;;4942067;29;20181;-66
2023/12/10 08:43:37;;;;;;;0.30;0.30;;;9.60;99.90;;;;;;4936738;29;20655;-67
2023/12/10 08:46:03;;;;;;;0.30;0.30;;;9.60;99.90;;;;;;4938474;29;20254;-67
2023/12/10 08:48:30;;;;;;;0.30;0.28;;;9.60;99.90;;;;;;4942840;29;20674;-66
2023/12/10 08:50:56;;;;;;;0.30;0.30;;;9.70;99.90;;;;;;4943163;29;20182;-65
2023/12/10 08:53:21;;;;;;;0.30;0.30;;;9.70;99.90;;;;;;4938584;29;20186;-67
2023/12/10 08:55:48;;;;;;;0.30;0.30;;;9.70;99.90;;;;;;4936332;29;20441;-66
2023/12/10 08:58:14;;;;;;;0.30;0.30;;;9.70;99.90;;;;;;4943219;29;20212;-65
2023/12/10 09:00:40;;;;;;;0.30;0.20;;;9.80;99.90;;;;;;4937045;29;20188;-65
2023/12/10 09:03:06;;;;;;;0.30;0.30;;;9.80;99.90;;;;;;4943966;29;20476;-65
2023/12/10 09:05:31;;;;;;;0.30;0.30;;;9.80;99.90;;;;;;4940876;29;20445;-65
2023/12/10 09:07:57;;;;;;;0.30;0.30;;;9.90;99.90;;;;;;4936819;29;20202;-65
2023/12/10 09:10:23;;;;;;;0.30;0.30;;;9.90;99.90;;;;;;4946513;29;20189;-65
2023/12/10 09:12:49;;;;;;;0.30;0.30;;;10.00;99.90;;;;;;4955169;29;20167;-66
2023/12/10 09:15:14;;;;;;;0.30;0.30;;;10.20;99.90;;;;;;4953251;29;20193;-65
2023/12/10 09:17:40;;;;;;;0.30;0.27;;;10.50;99.90;;;;;;4935909;29;20184;-66
2023/12/10 09:20:07;;;;;;;0.40;0.40;;;10.70;99.90;;;;;;4937080;29;20254;-66
2023/12/10 09:22:33;;;;;;;0.33;0.33;;;10.70;99.90;;;;;;4937441;29;20209;-66
2023/12/10 09:24:58;;;;;;;0.30;0.30;;;10.70;99.90;;;;;;4954498;29;20493;-64
2023/12/10 09:27:24;;;;;;;0.30;0.27;;;10.70;99.90;;;;;;4939947;28;20199;-66
2023/12/10 09:29:50;;;;;;;0.30;0.30;;;10.60;99.90;;;;;;4939617;29;20171;-66
2023/12/10 09:32:16;;;;;;;0.30;0.30;;;10.50;99.90;;;;;;4939922;29;20175;-66
2023/12/10 09:34:43;;;;;;;0.30;0.30;;;10.50;99.90;;;;;;4939283;29;20255;-64
2023/12/10 09:37:13;;;;;;;0.30;0.20;;;10.60;99.90;;;;;;4940671;29;20471;-67
2023/12/10 09:39:39;;;;;;;0.30;0.30;;;10.50;99.90;;;;;;4939812;29;20417;-66
2023/12/10 09:42:04;;;;;;;0.30;0.30;;;10.50;99.90;;;;;;4939033;29;20521;-67
2023/12/10 09:44:31;;;;;;;0.33;0.33;;;10.60;99.90;;;;;;4955030;29;20186;-65
2023/12/10 09:46:56;;;;;;;0.30;0.30;;;10.60;99.90;;;;;;4947774;29;20198;-66
2023/12/10 09:49:23;;;;;;;0.30;0.30;;;10.70;99.90;;;;;;4950257;29;20419;-67
2023/12/10 09:51:49;;;;;;;0.30;0.30;;;11.00;99.90;;;;;;4940318;29;20431;-67
2023/12/10 09:54:14;;;;;;;0.40;0.40;;;11.30;99.90;;;;;;4938537;29;20413;-68
2023/12/10 09:56:40;;;;;;;0.30;0.20;;;11.60;99.90;;;;;;4950801;29;20192;-67
2023/12/10 09:59:06;;;;;;;0.30;0.30;;;11.80;99.90;;;;;;4941979;29;20195;-66
2023/12/10 10:01:31;;;;;;;0.30;0.20;;;11.90;99.90;;;;;;4942757;29;20180;-67
2023/12/10 10:03:58;;;;;;;0.30;0.30;;;12.00;99.90;;;;;;4927334;29;20687;-67
2023/12/10 10:06:24;;;;;;;0.30;0.30;;;12.00;99.90;;;;;;4944371;29;20559;-66
2023/12/10 10:08:49;;;;;;;0.30;0.30;;;12.00;99.90;;;;;;4947097;29;20453;-65
2023/12/10 10:11:16;;;;;;;0.30;0.30;;;11.90;99.90;;;;;;4938931;29;20188;-67
2023/12/10 10:13:54;;;;;;;0.30;0.30;;;11.80;99.90;;;;;;4947074;29;20188;-67
2023/12/10 10:16:19;;;;;;;0.30;0.30;;;11.70;99.90;;;;;;4956416;29;20442;-67
2023/12/10 10:18:47;;;;;;;0.40;0.33;;;11.60;99.90;;;;;;4958055;29;20916;-67
2023/12/10 10:21:13;;;;;;;0.30;0.30;;;11.60;99.90;;;;;;4954445;29;20184;-67
2023/12/10 10:23:38;;;;;;;0.30;0.30;;;11.40;99.90;;;;;;4949468;29;20939;-66
2023/12/10 10:26:04;;;;;;;0.30;0.30;;;11.40;99.90;;;;;;4942541;29;20212;-65
2023/12/10 10:28:30;;;;;;;0.30;0.20;;;11.30;99.90;;;;;;4938735;29;20212;-66
2023/12/10 10:30:57;;;;;;;0.30;0.20;;;11.30;99.90;;;;;;4938551;29;20538;-65
2023/12/10 10:33:25;;;;;;;0.30;0.30;;;11.30;99.90;;;;;;4938882;29;20753;-64
2023/12/10 10:35:52;;;;;;;0.30;0.20;;;11.30;99.90;;;;;;4938478;29;20799;-66
2023/12/10 10:38:20;;;;;;;0.30;0.30;;;11.30;99.90;;;;;;4937854;29;20431;-64
2023/12/10 10:40:47;;;;;;;0.30;0.30;;;11.20;99.90;;;;;;4938457;29;20427;-63
2023/12/10 10:43:13;;;;;;;0.30;0.30;;;11.20;99.90;;;;;;4938635;29;20423;-64
2023/12/10 10:45:39;;;;;;;0.30;0.30;;;11.20;99.90;;;;;;4938110;29;20432;-64
2023/12/10 10:48:05;;;;;;;0.37;0.37;;;11.20;99.90;;;;;;4938582;29;20486;-65
2023/12/10 10:50:33;;;;;;;0.30;0.30;;;11.20;99.90;;;;;;4938698;29;20196;-65
2023/12/10 10:53:00;;;;;;;0.30;0.30;;;11.20;99.90;;;;;;4938547;29;20983;-63
2023/12/10 10:55:25;;;;;;;0.30;0.30;;;11.20;99.90;;;;;;4937770;29;20440;-63
2023/12/10 10:57:52;;;;;;;0.30;0.30;;;11.20;99.90;;;;;;4919496;29;20437;-64
2023/12/10 11:00:17;;;;;;;0.30;0.27;;;11.20;99.90;;;;;;4919213;29;21005;-65
2023/12/10 11:02:45;;;;;;;0.30;0.20;;;11.30;99.90;;;;;;4919463;29;20428;-65
2023/12/10 11:05:12;;;;;;;0.30;0.20;;;11.30;99.90;;;;;;4918997;29;20275;-64
2023/12/10 11:07:40;;;;;;;0.30;0.20;;;11.30;99.90;;;;;;4918928;29;20524;-64
2023/12/10 11:10:07;;;;;;;0.30;0.30;;;11.30;99.90;;;;;;4919388;29;20460;-65
2023/12/10 11:12:42;;;;;;;0.30;0.30;;;11.40;99.90;;;;;;4937558;29;20413;-64
2023/12/10 11:15:13;;;;;;;0.33;0.33;;;11.50;99.90;;;;;;4920210;29;20519;-65
2023/12/10 11:17:58;;;;;;;0.30;0.30;;;11.50;99.90;;;;;;4938278;29;20463;-65
2023/12/10 11:20:38;;;;;;;0.30;0.30;;;11.50;99.90;;;;;;4938172;29;20489;-66
2023/12/10 11:23:06;;;;;;;0.30;0.20;;;11.40;99.90;;;;;;4937962;29;20479;-65
2023/12/10 11:25:32;;;;;;;0.30;0.30;;;11.30;99.90;;;;;;4937378;29;20488;-64
2023/12/10 11:27:59;;;;;;;0.30;0.30;;;11.20;99.90;;;;;;4937809;29;20442;-64
2023/12/10 11:30:25;;;;;;;0.30;0.30;;;11.20;99.90;;;;;;4937932;29;20750;-64
2023/12/10 11:32:51;;;;;;;0.30;0.30;;;11.20;99.90;;;;;;4937832;29;20427;-65
2023/12/10 11:35:20;;;;;;;0.30;0.30;;;11.20;99.90;;;;;;4937467;29;20772;-70
2023/12/10 11:37:46;;;;;;;0.30;0.23;;;11.10;99.90;;;;;;4937431;29;20192;-64
2023/12/10 11:40:12;;;;;;;0.30;0.20;;;11.10;99.90;;;;;;4937675;29;20416;-64
2023/12/10 11:42:37;;;;;;;0.30;0.30;;;11.10;99.90;;;;;;4937430;29;20181;-65
2023/12/10 11:45:04;;;;;;;0.30;0.30;;;11.10;99.90;;;;;;4936986;29;20228;-65
2023/12/10 11:47:30;;;;;;;0.30;0.30;;;11.00;99.90;;;;;;4937195;29;20206;-63
2023/12/10 11:49:56;;;;;;;0.30;0.30;;;11.00;99.90;;;;;;4937419;29;20424;-65
2023/12/10 11:52:22;;;;;;;0.30;0.30;;;10.90;99.90;;;;;;4937067;29;20426;-64
2023/12/10 11:54:48;;;;;;;0.50;0.47;;;10.90;99.90;;;;;;4936361;29;20600;-65
2023/12/10 11:57:13;;;;;;;0.40;0.40;;;10.80;99.90;;;;;;4937356;29;20435;-64
2023/12/10 11:59:39;;;;;;;0.30;0.30;;;10.90;99.90;;;;;;4937334;29;20412;-63
2023/12/10 12:02:06;;;;;;;0.30;0.30;;;10.90;99.90;;;;;;4937337;29;20541;-64
2023/12/10 12:04:33;;;;;;;0.30;0.20;;;10.90;99.90;;;;;;4936721;29;20179;-64
2023/12/10 12:06:58;;;;;;;0.30;0.30;;;11.00;99.90;;;;;;4936561;29;20470;-64
2023/12/10 12:09:25;;;;;;;0.30;0.30;;;11.00;99.90;;;;;;4937008;29;20411;-65
2023/12/10 12:11:51;;;;;;;0.30;0.30;;;11.00;99.90;;;;;;4937128;29;20636;-65
2023/12/10 12:14:19;;;;;;;0.30;0.30;;;11.20;99.90;;;;;;4936697;29;20412;-64
2023/12/10 12:16:48;;;;;;;0.30;0.30;;;11.20;99.90;;;;;;4936560;29;20441;-65
2023/12/10 12:19:29;;;;;;;0.30;0.20;;;11.30;99.90;;;;;;4919825;29;20460;-64
2023/12/10 12:21:57;;;;;;;0.30;0.30;;;11.40;99.90;;;;;;4937189;29;20387;-64
2023/12/10 12:24:22;;;;;;;0.30;0.30;;;11.50;99.90;;;;;;4936007;29;20466;-65
2023/12/10 12:26:50;;;;;;;0.30;0.30;;;11.50;99.90;;;;;;4936601;29;20464;-64
2023/12/10 12:29:15;;;;;;;0.30;0.20;;;11.60;99.90;;;;;;4936638;29;20204;-64
2023/12/10 12:31:41;;;;;;;0.30;0.20;;;11.60;99.90;;;;;;4919607;29;20488;-64
2023/12/10 12:34:07;;;;;;;0.40;0.40;;;11.60;99.90;;;;;;4936388;29;20393;-65
2023/12/10 12:36:32;;;;;;;0.30;0.20;;;11.50;99.90;;;;;;4936691;29;20193;-64
2023/12/10 12:38:58;;;;;;;0.30;0.30;;;11.50;99.90;;;;;;4936226;29;20684;-64
2023/12/10 12:41:24;;;;;;;0.30;0.30;;;11.40;99.90;;;;;;4936694;29;20179;-64
2023/12/10 12:43:49;;;;;;;0.30;0.30;;;11.30;99.90;;;;;;4936542;29;20241;-65
2023/12/10 12:46:17;;;;;;;0.30;0.30;;;11.20;99.90;;;;;;4936131;29;20204;-65
2023/12/10 12:48:42;;;;;;;0.37;0.37;;;11.20;99.90;;;;;;4936621;29;20203;-65
2023/12/10 12:51:08;;;;;;;0.30;0.30;;;11.10;99.90;;;;;;4936485;29;20417;-65
2023/12/10 12:53:33;;;;;;;0.40;0.40;;;11.10;99.90;;;;;;4935981;29;20667;-64
2023/12/10 12:55:59;;;;;;;0.30;0.30;;;11.10;99.90;;;;;;4934611;29;20195;-65
2023/12/10 12:58:25;;;;;;;0.30;0.30;;;11.10;99.90;;;;;;4919271;29;20533;-64
2023/12/10 13:00:50;;;;;;;0.30;0.30;;;11.10;99.90;;;;;;4935776;29;20179;-64
2023/12/10 13:03:16;;;;;;;0.30;0.30;;;11.10;99.90;;;;;;4936409;29;20267;-65
2023/12/10 13:05:41;;;;;;;0.30;0.30;;;11.00;99.90;;;;;;4936060;29;20191;-63
2023/12/10 13:08:09;;;;;;;0.30;0.30;;;11.00;99.90;;;;;;4935757;29;20204;-65
2023/12/10 13:10:34;;;;;;;0.30;0.30;;;10.90;99.90;;;;;;4936159;29;20183;-65
2023/12/10 13:13:00;;;;;;;0.30;0.30;;;10.90;99.90;;;;;;4919366;29;20411;-64
2023/12/10 13:15:25;;;;;;;0.30;0.30;;;10.90;99.90;;;;;;4935274;29;20552;-64
2023/12/10 13:17:51;;;;;;;0.30;0.30;;;10.90;99.90;;;;;;4919215;29;20685;-64
2023/12/10 13:20:18;;;;;;;0.30;0.30;;;10.80;99.90;;;;;;4935915;29;20182;-64
2023/12/10 13:22:43;;;;;;;0.30;0.20;;;10.90;99.90;;;;;;4936073;29;20183;-64
2023/12/10 13:25:09;;;;;;;0.30;0.30;;;10.80;99.90;;;;;;4935590;29;20453;-65
2023/12/10 13:27:35;;;;;;;0.30;0.30;;;10.90;99.90;;;;;;4935624;29;20216;-63
2023/12/10 13:30:01;;;;;;;0.30;0.30;;;10.90;99.90;;;;;;4936178;29;20419;-65
2023/12/10 13:32:26;;;;;;;0.30;0.20;;;10.90;99.90;;;;;;4936131;29;20756;-65
2023/12/10 13:34:52;;;;;;;0.30;0.30;;;10.80;99.90;;;;;;4935652;29;20198;-64
2023/12/10 13:37:17;;;;;;;0.30;0.20;;;10.80;99.90;;;;;;4935808;29;20230;-65
2023/12/10 13:39:43;;;;;;;0.30;0.30;;;10.80;99.90;;;;;;4935697;29;20184;-64
2023/12/10 13:42:09;;;;;;;0.30;0.20;;;10.80;99.90;;;;;;4935702;29;20174;-64
2023/12/10 13:44:34;;;;;;;0.30;0.30;;;10.80;99.90;;;;;;4935335;29;20201;-63
2023/12/10 13:47:00;;;;;;;0.30;0.30;;;10.80;99.90;;;;;;4935687;29;20673;-65
2023/12/10 13:49:25;;;;;;;0.30;0.30;;;10.80;99.90;;;;;;4935949;29;20505;-65
2023/12/10 13:51:51;;;;;;;0.40;0.40;;;10.80;99.90;;;;;;4935655;29;20182;-65
2023/12/10 13:54:17;;;;;;;0.30;0.30;;;10.80;99.90;;;;;;4935534;29;20182;-64
2023/12/10 13:56:43;;;;;;;0.30;0.20;;;10.80;99.90;;;;;;4918495;29;20195;-64
2023/12/10 13:59:08;;;;;;;0.30;0.30;;;10.70;99.90;;;;;;4935818;29;20411;-64
2023/12/10 14:01:35;;;;;;;0.30;0.30;;;10.70;99.90;;;;;;4935181;29;20179;-64
2023/12/10 14:04:02;;;;;;;0.30;0.30;;;10.70;99.90;;;;;;4935406;29;20186;-65
2023/12/10 14:06:28;;;;;;;0.40;0.40;;;10.60;99.90;;;;;;4935347;29;20224;-64
2023/12/10 14:08:53;;;;;;;0.30;0.30;;;10.60;99.90;;;;;;4935689;29;20806;-63
2023/12/10 14:11:19;;;;;;;0.30;0.30;;;10.60;99.90;;;;;;4935591;29;20179;-63
2023/12/10 14:13:45;;;;;;;0.30;0.30;;;10.60;99.90;;;;;;4937864;29;20192;-64
2023/12/10 14:16:11;;;;;;;0.37;0.37;;;10.50;99.90;;;;;;4938400;29;20945;-64
2023/12/10 14:18:36;;;;;;;0.30;0.30;;;10.50;99.90;;;;;;4939217;29;20174;-63
2023/12/10 14:21:02;;;;;;;0.30;0.30;;;10.50;99.90;;;;;;4938933;29;20185;-64
2023/12/10 14:23:27;;;;;;;0.30;0.30;;;10.50;99.90;;;;;;4938991;29;20190;-65
2023/12/10 14:25:53;;;;;;;0.30;0.30;;;10.50;99.90;;;;;;4938386;29;20555;-65
2023/12/10 14:28:19;;;;;;;0.30;0.30;;;10.50;99.90;;;;;;4938677;29;20214;-63
2023/12/10 14:30:44;;;;;;;0.37;0.37;;;10.50;99.90;;;;;;4938688;29;20182;-64
2023/12/10 14:33:10;;;;;;;0.40;0.40;;;10.50;99.90;;;;;;4938970;29;20179;-65
2023/12/10 14:35:36;;;;;;;0.37;0.37;;;10.40;99.90;;;;;;4937137;29;20721;-64
2023/12/10 14:38:01;;;;;;;0.30;0.30;;;10.50;99.90;;;;;;4938761;29;20197;-64
2023/12/10 14:40:27;;;;;;;0.30;0.30;;;10.50;99.90;;;;;;4938869;29;20185;-64
2023/12/10 14:42:53;;;;;;;0.30;0.30;;;10.50;99.90;;;;;;4938436;29;20432;-65
2023/12/10 14:45:18;;;;;;;0.33;0.33;;;10.40;99.90;;;;;;4937883;29;20201;-64
2023/12/10 14:47:44;;;;;;;0.30;0.30;;;10.40;99.90;;;;;;4938657;29;20236;-65
2023/12/10 14:50:09;;;;;;;0.30;0.20;;;10.40;99.90;;;;;;4938673;29;20257;-65
2023/12/10 14:52:35;;;;;;;0.30;0.30;;;10.40;99.90;;;;;;4938446;29;20234;-64
2023/12/10 14:55:01;;;;;;;0.30;0.30;;;10.40;99.90;;;;;;4938205;29;20177;-64
2023/12/10 14:57:26;;;;;;;0.30;0.30;;;10.40;99.90;;;;;;4938443;29;20185;-64
2023/12/10 14:59:52;;;;;;;0.30;0.30;;;10.40;99.90;;;;;;4938361;29;20181;-64
2023/12/10 15:02:18;;;;;;;0.30;0.30;;;10.30;99.90;;;;;;4938313;29;20548;-63
2023/12/10 15:04:44;;;;;;;0.30;0.20;;;10.30;99.90;;;;;;4937712;29;20181;-63
2023/12/10 15:07:09;;;;;;;0.30;0.30;;;10.30;99.90;;;;;;4937832;29;20384;-64
2023/12/10 15:09:40;;;;;;;0.30;0.20;;;10.30;99.90;;;;;;4938379;29;20441;-64
2023/12/10 15:12:06;;;;;;;0.40;0.40;;;10.30;99.90;;;;;;4937927;29;20173;-64
2023/12/10 15:14:31;;;;;;;0.30;0.30;;;10.20;99.90;;;;;;4937591;29;20257;-62
2023/12/10 15:16:57;;;;;;;0.30;0.20;;;10.20;99.90;;;;;;4938040;29;20201;-64
2023/12/10 15:19:24;;;;;;;0.30;0.30;;;10.20;99.90;;;;;;4937866;29;20188;-64
2023/12/10 15:21:50;;;;;;;0.30;0.30;;;10.20;99.90;;;;;;4938043;29;20772;-64
2023/12/10 15:24:15;;;;;;;0.30;0.30;;;10.10;99.90;;;;;;4937161;29;20177;-63
2023/12/10 15:26:41;;;;;;;0.30;0.30;;;10.10;99.90;;;;;;4920836;29;20201;-64
2023/12/10 15:29:07;;;;;;;0.30;0.30;;;10.10;99.90;;;;;;4938030;29;20288;-63
2023/12/10 15:31:32;;;;;;;0.30;0.30;;;10.00;99.90;;;;;;4938201;29;20494;-63
2023/12/10 15:33:58;;;;;;;0.30;0.30;;;10.10;99.90;;;;;;4936967;29;20531;-63
2023/12/10 15:36:23;;;;;;;0.30;0.30;;;10.10;99.90;;;;;;4937538;29;20206;-64
2023/12/10 15:38:49;;;;;;;0.30;0.30;;;10.10;99.90;;;;;;4938049;29;20181;-64
2023/12/10 15:41:15;;;;;;;0.30;0.20;;;10.00;99.90;;;;;;4937572;29;20174;-64
2023/12/10 15:43:40;;;;;;;0.30;0.20;;;10.10;99.90;;;;;;4937547;29;20276;-64
2023/12/10 15:46:06;;;;;;;0.30;0.30;;;10.00;99.90;;;;;;4937222;29;20199;-64
2023/12/10 15:48:33;;;;;;;0.37;0.37;;;10.00;99.90;;;;;;4936861;29;20276;-64
2023/12/10 15:50:59;;;;;;;0.35;0.35;;;10.10;99.90;;;;;;4937572;29;20216;-64
2023/12/10 15:53:24;;;;;;;0.30;0.30;;;10.10;99.90;;;;;;4937040;29;20577;-63
2023/12/10 15:55:50;;;;;;;0.30;0.30;;;10.10;99.90;;;;;;4936968;29;20189;-64
2023/12/10 15:58:16;;;;;;;0.30;0.30;;;10.00;99.90;;;;;;4937444;29;20185;-65
2023/12/10 16:00:42;;;;;;;0.30;0.25;;;10.00;99.90;;;;;;4937184;29;20177;-63
2023/12/10 16:03:07;;;;;;;0.30;0.30;;;10.00;99.90;;;;;;4937131;29;20204;-64
2023/12/10 16:05:33;;;;;;;0.30;0.30;;;10.00;99.90;;;;;;4936187;29;20561;-64
2023/12/10 16:07:59;;;;;;;0.30;0.30;;;9.90;99.90;;;;;;4936870;29;20208;-65
2023/12/10 16:10:24;;;;;;;0.30;0.30;;;10.00;99.90;;;;;;4936159;29;20177;-66
2023/12/10 16:12:50;;;;;;;0.47;0.47;;;9.90;99.90;;;;;;4949179;29;20648;-64
2023/12/10 16:15:16;;;;;;;0.30;0.30;;;9.80;99.90;;;;;;4955606;29;20201;-64
2023/12/10 16:17:42;;;;;;;0.30;0.30;;;9.80;99.90;;;;;;4937321;29;20464;-68
2023/12/10 16:20:09;;;;;;;0.30;0.30;;;9.80;99.90;;;;;;4936488;29;20181;-68
2023/12/10 16:22:35;;;;;;;0.30;0.30;;;9.80;99.90;;;;;;4919632;29;20648;-67
2023/12/10 16:25:00;;;;;;;0.30;0.30;;;9.80;99.90;;;;;;4936275;29;20264;-68
2023/12/10 16:27:26;;;;;;;0.30;0.30;;;9.80;99.90;;;;;;4919547;29;20285;-69
2023/12/10 16:29:51;;;;;;;0.30;0.30;;;9.80;99.90;;;;;;4936323;29;20206;-67
2023/12/10 16:32:17;;;;;;;0.30;0.20;;;9.80;99.90;;;;;;4937900;29;20177;-69
2023/12/10 16:34:43;;;;;;;0.30;0.20;;;9.80;99.90;;;;;;4935425;29;20270;-68
2023/12/10 16:37:09;;;;;;;0.32;0.32;;;9.70;99.90;;;;;;4941634;29;20509;-68
2023/12/10 16:39:35;;;;;;;0.30;0.30;;;9.70;99.90;;;;;;4953751;29;20239;-67
2023/12/10 16:42:01;;;;;;;0.30;0.20;;;9.70;99.90;;;;;;4950507;29;20263;-68
2023/12/10 16:44:27;;;;;;;0.30;0.30;;;9.60;99.90;;;;;;4955034;29;20611;-68
2023/12/10 16:46:57;;;;;;;0.40;0.40;;;9.60;99.90;;;;;;4955587;29;20240;-67
2023/12/10 16:49:23;;;;;;;0.30;0.30;;;9.60;99.90;;;;;;4945284;29;20193;-70
2023/12/10 16:51:51;;;;;;;0.30;0.30;;;9.50;99.90;;;;;;4936330;29;20174;-70
2023/12/10 16:54:17;;;;;;;0.40;0.40;;;9.50;99.90;;;;;;4936125;29;20425;-68
2023/12/10 16:56:43;;;;;;;0.32;0.32;;;9.50;99.90;;;;;;4939482;29;20560;-68
2023/12/10 16:59:10;;;;;;;0.38;0.38;;;9.50;99.90;;;;;;4953617;29;20193;-68
2023/12/10 17:01:57;;;;;;;0.30;0.30;;;9.60;99.90;;;;;;4927472;29;20272;-66
2023/12/10 17:04:23;;;;;;;0.30;0.30;;;9.70;99.90;;;;;;4885943;29;20215;-69
2023/12/10 17:06:49;;;;;;;0.40;0.40;;;9.70;99.90;;;;;;4877260;29;20233;-68
2023/12/10 17:09:18;;;;;;;0.30;0.30;;;9.70;99.90;;;;;;4876924;29;20290;-71
2023/12/10 17:11:46;;;;;;;0.30;0.30;;;9.70;99.90;;;;;;4875656;29;20183;-67
2023/12/10 17:14:12;;;;;;;0.35;0.35;;;9.80;99.90;;;;;;4876764;29;20324;-67
2023/12/10 17:16:38;;;;;;;0.30;0.30;;;9.70;99.90;;;;;;4877026;29;20714;-68
2023/12/10 17:19:03;;;;;;;0.30;0.30;;;9.70;99.90;;;;;;4884778;29;20705;-66
2023/12/10 17:21:29;;;;;;;0.40;0.40;;;9.60;99.90;;;;;;4880359;29;20615;-66
2023/12/10 17:23:54;;;;;;;0.30;0.30;;;9.60;99.90;;;;;;4884018;29;20677;-67
2023/12/10 17:26:20;;;;;;;0.30;0.30;;;9.60;99.90;;;;;;4877143;29;20263;-65
2023/12/10 17:28:46;;;;;;;0.30;0.30;;;9.60;99.90;;;;;;4883671;29;20241;-64
2023/12/10 17:31:13;;;;;;;0.33;0.33;;;9.50;99.90;;;;;;4887764;29;20185;-67
2023/12/10 17:33:39;;;;;;;0.30;0.30;;;9.60;99.90;;;;;;4884116;29;20295;-67
2023/12/10 17:36:05;;;;;;;0.40;0.40;;;9.60;99.90;;;;;;4895400;29;20213;-68
2023/12/10 17:38:30;;;;;;;0.30;0.30;;;9.60;99.90;;;;;;4895614;29;20178;-66
2023/12/10 17:40:56;;;;;;;0.30;0.27;;;9.60;99.90;;;;;;4915031;29;20663;-66
2023/12/10 17:43:21;;;;;;;0.30;0.30;;;9.60;99.90;;;;;;4954837;29;20176;-64
2023/12/10 17:45:48;;;;;;;0.30;0.27;;;9.60;99.90;;;;;;4953005;29;20560;-67
2023/12/10 17:48:13;;;;;;;0.30;0.30;;;9.60;99.90;;;;;;4938539;29;20210;-65